createdAt,value
2022-07-27T04:02:34.075Z,19.07
2022-07-27T04:05:03.536Z,19.03
2022-07-27T04:07:32.963Z,18.99
2022-07-27T04:10:02.342Z,19.06
2022-07-27T04:12:33.198Z,19.11
2022-07-27T04:15:05.226Z,19.13
2022-07-27T04:17:55.501Z,19.00
2022-07-27T04:20:26.862Z,18.86
2022-07-27T04:22:56.316Z,18.73
2022-07-27T04:25:25.693Z,18.69
2022-07-27T04:27:56.955Z,18.80
2022-07-27T04:30:26.671Z,18.90
2022-07-27T04:32:58.651Z,18.71
2022-07-27T04:35:28.156Z,18.69
2022-07-27T04:37:59.790Z,18.70
2022-07-27T04:40:32.396Z,18.76
2022-07-27T04:43:01.847Z,18.92
2022-07-27T04:45:31.801Z,18.90
2022-07-27T04:48:07.728Z,18.65
2022-07-27T04:50:41.329Z,18.73
2022-07-27T04:53:11.017Z,18.74
2022-07-27T04:55:40.386Z,18.55
2022-07-27T04:58:09.810Z,18.61
2022-07-27T05:00:39.302Z,18.68
2022-07-27T05:03:11.260Z,18.80
2022-07-27T05:05:40.836Z,18.75
2022-07-27T05:08:19.548Z,18.77
2022-07-27T05:10:48.951Z,18.78
2022-07-27T05:13:18.293Z,18.86
2022-07-27T05:15:54.501Z,18.65
2022-07-27T05:18:28.245Z,18.61
2022-07-27T05:20:57.681Z,18.70
2022-07-27T05:23:27.072Z,18.43
2022-07-27T05:25:56.444Z,18.26
2022-07-27T05:28:25.865Z,18.39
2022-07-27T05:30:55.206Z,18.26
2022-07-27T05:33:25.314Z,18.41
2022-07-27T05:35:57.666Z,18.44
2022-07-27T05:38:27.162Z,18.61
2022-07-27T05:40:56.598Z,18.68
2022-07-27T05:43:26.029Z,18.71
2022-07-27T05:45:57.133Z,18.50
2022-07-27T05:48:26.554Z,18.53
2022-07-27T05:50:58.551Z,18.32
2022-07-27T05:53:27.980Z,18.41
2022-07-27T05:55:58.628Z,18.53
2022-07-27T05:58:29.628Z,18.54
2022-07-27T06:00:59.833Z,18.49
2022-07-27T06:03:29.287Z,18.64
2022-07-27T06:06:13.703Z,18.78
2022-07-27T06:08:43.200Z,18.77
2022-07-27T06:11:12.637Z,18.82
2022-07-27T06:13:42.607Z,19.00
2022-07-27T06:16:12.378Z,19.11
2022-07-27T06:18:41.933Z,19.12
2022-07-27T06:21:13.941Z,19.32
2022-07-27T06:23:43.604Z,19.36
2022-07-27T06:26:13.097Z,19.43
2022-07-27T06:28:42.543Z,19.51
2022-07-27T06:31:13.450Z,19.58
2022-07-27T06:33:45.359Z,19.50
2022-07-27T06:36:20.342Z,19.70
2022-07-27T06:38:49.751Z,19.60
2022-07-27T06:41:19.955Z,19.63
2022-07-27T06:43:49.357Z,19.74
2022-07-27T06:46:18.820Z,20.11
2022-07-27T06:48:48.321Z,19.95
2022-07-27T06:51:20.418Z,20.06
2022-07-27T06:53:53.197Z,20.08
2022-07-27T06:56:23.163Z,20.11
2022-07-27T06:58:52.877Z,20.12
2022-07-27T07:01:22.307Z,20.29
2022-07-27T07:03:51.847Z,20.54
2022-07-27T07:06:23.955Z,20.31
2022-07-27T07:08:53.344Z,20.44
2022-07-27T07:11:22.766Z,20.75
2022-07-27T07:13:52.216Z,20.71
2022-07-27T07:16:21.762Z,20.83
2022-07-27T07:18:52.615Z,21.00
2022-07-27T07:21:24.850Z,21.03
2022-07-27T07:23:54.350Z,20.89
2022-07-27T07:26:23.760Z,20.87
2022-07-27T07:28:53.129Z,21.03
2022-07-27T07:31:22.657Z,20.82
2022-07-27T07:33:52.201Z,20.79
2022-07-27T07:36:24.360Z,21.09
2022-07-27T07:38:55.769Z,21.06
2022-07-27T07:41:25.518Z,21.11
2022-07-27T07:43:54.933Z,20.90
2022-07-27T07:46:24.474Z,20.60
2022-07-27T07:48:54.230Z,20.66
2022-07-27T07:51:26.317Z,20.49
2022-07-27T07:53:55.780Z,20.49
2022-07-27T07:56:25.156Z,20.55
2022-07-27T07:58:54.632Z,20.60
2022-07-27T08:01:24.100Z,20.66
2022-07-27T08:03:55.379Z,20.58
2022-07-27T08:06:27.441Z,20.46
2022-07-27T08:08:57.487Z,20.49
2022-07-27T08:11:27.176Z,20.68
2022-07-27T08:13:56.678Z,20.84
2022-07-27T08:16:26.235Z,20.76
2022-07-27T08:18:55.776Z,20.56
2022-07-27T08:21:29.110Z,20.66
2022-07-27T08:24:02.786Z,20.59
2022-07-27T08:26:32.440Z,20.45
2022-07-27T08:29:13.253Z,20.80
2022-07-27T08:31:52.850Z,20.74
2022-07-27T08:34:22.815Z,20.97
2022-07-27T08:36:54.789Z,21.14
2022-07-27T08:40:19.892Z,21.25
2022-07-27T08:42:13.730Z,21.20
2022-07-27T08:44:43.776Z,21.19
2022-07-27T08:47:13.678Z,21.34
2022-07-27T08:49:44.441Z,21.24
2022-07-27T08:52:16.573Z,21.38
2022-07-27T08:54:46.210Z,21.32
2022-07-27T08:57:15.663Z,21.39
2022-07-27T08:59:45.326Z,21.43
2022-07-27T09:02:16.870Z,21.44
2022-07-27T09:04:46.389Z,21.43
2022-07-27T09:07:29.380Z,21.48
2022-07-27T09:10:00.848Z,21.64
2022-07-27T09:12:30.751Z,21.79
2022-07-27T09:15:06.217Z,21.84
2022-07-27T09:17:51.029Z,22.02
2022-07-27T09:20:21.604Z,21.93
2022-07-27T09:22:54.993Z,22.06
2022-07-27T09:26:00.847Z,21.95
2022-07-27T09:28:31.931Z,22.04
2022-07-27T09:31:07.503Z,22.09
2022-07-27T09:33:43.425Z,22.14
2022-07-27T09:36:12.934Z,22.11
2022-07-27T09:38:55.250Z,22.08
2022-07-27T09:41:28.457Z,22.21
2022-07-27T09:44:30.532Z,22.30
2022-07-27T09:46:50.177Z,22.37
2022-07-27T09:49:30.348Z,22.38
2022-07-27T09:52:01.372Z,22.52
2022-07-27T09:54:43.870Z,22.44
2022-07-27T09:57:13.473Z,22.44
2022-07-27T09:59:42.961Z,22.50
2022-07-27T10:02:14.925Z,22.87
2022-07-27T10:04:44.629Z,23.28
2022-07-27T10:07:14.861Z,23.35
2022-07-27T10:09:47.089Z,23.08
2022-07-27T10:12:16.637Z,23.11
2022-07-27T10:14:47.694Z,22.97
2022-07-27T10:17:17.346Z,23.11
2022-07-27T10:19:49.956Z,23.29
2022-07-27T10:22:19.413Z,23.41
2022-07-27T10:25:00.809Z,23.67
2022-07-27T10:27:31.170Z,23.92
2022-07-27T10:30:00.779Z,24.07
2022-07-27T10:32:31.295Z,23.67
2022-07-27T10:35:01.277Z,23.29
2022-07-27T10:37:31.561Z,23.06
2022-07-27T10:40:16.571Z,23.43
2022-07-27T10:42:51.920Z,23.87
2022-07-27T10:45:23.445Z,24.18
2022-07-27T10:47:53.961Z,24.40
2022-07-27T10:50:25.051Z,24.43
2022-07-27T10:52:55.368Z,24.29
2022-07-27T10:55:39.948Z,23.32
2022-07-27T10:58:24.144Z,23.41
2022-07-27T11:01:07.538Z,23.90
2022-07-27T11:03:42.689Z,24.27
2022-07-27T11:09:53.187Z,24.32
2022-07-27T11:11:54.850Z,24.09
2022-07-27T11:14:30.791Z,23.96
2022-07-27T11:17:39.843Z,24.22
2022-07-27T11:19:58.071Z,24.42
2022-07-27T11:22:58.861Z,24.34
2022-07-27T11:25:23.548Z,24.17
2022-07-27T11:27:53.240Z,24.16
2022-07-27T11:30:26.498Z,24.23
2022-07-27T11:32:58.679Z,24.48
2022-07-27T11:35:28.081Z,24.61
2022-07-27T11:38:01.142Z,24.81
2022-07-27T11:40:56.375Z,24.96
2022-07-27T11:43:35.329Z,25.11
2022-07-27T11:46:14.467Z,25.26
2022-07-27T11:49:08.620Z,25.30
2022-07-27T11:51:43.077Z,25.14
2022-07-27T11:54:14.292Z,25.10
2022-07-27T11:56:46.148Z,25.07
2022-07-27T11:59:17.018Z,24.79
2022-07-27T12:01:49.851Z,24.75
2022-07-27T12:04:26.414Z,24.87
2022-07-27T12:07:19.724Z,24.90
2022-07-27T12:09:49.908Z,24.72
2022-07-27T12:12:19.854Z,24.87
2022-07-27T12:14:51.253Z,24.97
2022-07-27T12:17:28.455Z,24.89
2022-07-27T12:20:02.181Z,24.75
2022-07-27T12:22:33.522Z,24.85
2022-07-27T12:25:05.784Z,24.81
2022-07-27T12:27:40.910Z,24.57
2022-07-27T12:30:11.590Z,24.70
2022-07-27T12:32:42.910Z,25.01
2022-07-27T12:35:23.454Z,25.10
2022-07-27T12:37:59.231Z,24.90
2022-07-27T12:40:29.331Z,24.58
2022-07-27T12:43:00.410Z,24.70
2022-07-27T12:45:32.879Z,24.85
2022-07-27T12:48:09.545Z,24.79
2022-07-27T12:50:42.738Z,25.02
2022-07-27T12:53:13.410Z,25.02
2022-07-27T12:55:43.778Z,24.99
2022-07-27T16:18:36.823Z,24.87
2022-07-27T16:21:08.114Z,24.89
2022-07-27T16:23:37.821Z,25.09
2022-07-27T16:26:08.331Z,25.20
2022-07-27T16:28:39.729Z,25.05
2022-07-27T16:31:10.555Z,25.03
2022-07-27T16:33:44.163Z,24.97
2022-07-27T16:36:14.387Z,24.88
2022-07-27T16:38:50.196Z,24.79
2022-07-27T16:41:20.404Z,24.85
2022-07-27T16:43:50.422Z,25.26
2022-07-27T16:46:20.265Z,25.54
2022-07-27T16:48:52.396Z,25.86
2022-07-27T16:51:22.018Z,26.17
2022-07-27T16:53:51.404Z,26.41
2022-07-27T16:56:20.792Z,26.58
2022-07-27T16:58:50.327Z,26.79
2022-07-27T17:01:24.878Z,26.87
2022-07-27T17:03:59.299Z,26.76
2022-07-27T17:06:29.457Z,26.71
2022-07-27T17:08:58.869Z,26.63
2022-07-27T17:11:28.397Z,26.46
2022-07-27T17:13:58.962Z,26.49
2022-07-27T17:16:28.876Z,26.54
2022-07-27T17:19:03.477Z,26.48
2022-07-27T17:21:32.861Z,26.56
2022-07-27T17:24:02.249Z,26.71
2022-07-27T17:26:31.643Z,26.88
2022-07-27T17:29:01.061Z,26.92
2022-07-27T17:31:30.611Z,26.95
2022-07-27T17:34:02.964Z,27.13
2022-07-27T17:36:32.305Z,27.15
2022-07-27T17:39:02.497Z,27.28
2022-07-27T17:41:32.419Z,27.37
2022-07-27T17:44:02.149Z,27.57
2022-07-27T17:46:38.671Z,27.55
2022-07-27T17:49:11.396Z,27.51
2022-07-27T17:51:41.261Z,27.56
2022-07-27T17:54:10.782Z,27.36
2022-07-27T17:56:40.219Z,27.01
2022-07-27T17:59:36.478Z,26.67
2022-07-27T18:02:05.561Z,26.49
2022-07-27T18:04:39.587Z,26.17
2022-07-27T18:07:09.256Z,25.93
2022-07-27T18:09:38.669Z,25.53
2022-07-27T18:12:08.949Z,25.02
2022-07-27T18:14:58.388Z,24.68
2022-07-27T18:17:27.861Z,24.36
2022-07-27T18:19:59.843Z,24.08
2022-07-27T18:22:29.261Z,23.88
2022-07-27T18:24:58.868Z,23.70
2022-07-27T18:27:30.861Z,23.59
2022-07-27T18:30:00.337Z,23.45
2022-07-27T18:32:29.888Z,23.35
2022-07-27T18:35:01.936Z,23.27
2022-07-27T18:37:31.393Z,23.14
2022-07-27T18:40:00.745Z,23.10
2022-07-27T18:42:30.148Z,22.99
2022-07-27T18:44:59.609Z,22.89
2022-07-27T18:47:29.108Z,22.74
2022-07-27T18:49:58.491Z,22.67
2022-07-27T18:52:30.699Z,22.63
2022-07-27T18:55:00.556Z,22.44
2022-07-27T18:57:30.236Z,22.34
2022-07-27T18:59:59.596Z,22.33
2022-07-27T19:02:31.785Z,22.28
2022-07-27T19:05:03.193Z,22.16
2022-07-27T19:07:38.747Z,22.09
2022-07-27T19:10:10.731Z,22.11
2022-07-27T19:12:40.305Z,21.93
2022-07-27T19:15:12.857Z,21.85
2022-07-27T19:17:42.249Z,21.79
2022-07-27T19:20:13.298Z,21.61
2022-07-27T19:22:47.541Z,21.53
2022-07-27T19:25:17.680Z,21.57
2022-07-27T19:27:47.169Z,21.44
2022-07-27T19:30:16.808Z,21.43
2022-07-27T19:32:48.093Z,21.36
2022-07-27T19:35:17.648Z,21.30
2022-07-27T19:37:49.660Z,21.23
2022-07-27T19:43:08.880Z,21.18
2022-07-27T19:45:38.436Z,21.14
2022-07-27T19:48:08.430Z,21.10
2022-07-27T19:50:37.858Z,21.05
2022-07-27T19:53:10.108Z,21.00
2022-07-27T19:55:39.607Z,20.95
2022-07-27T19:58:08.937Z,20.91
2022-07-27T20:00:38.501Z,20.90
2022-07-27T20:03:07.907Z,20.85
2022-07-27T20:05:37.454Z,20.81
2022-07-27T20:08:07.200Z,20.81
2022-07-27T20:10:39.229Z,20.77
2022-07-27T20:13:08.656Z,20.71
2022-07-27T20:15:38.143Z,20.70
2022-07-27T20:18:07.783Z,20.68
2022-07-27T20:20:37.211Z,20.58
2022-07-27T20:23:07.629Z,20.54
2022-07-27T20:25:42.707Z,20.53
2022-07-27T20:28:13.213Z,20.48
2022-07-27T20:30:43.482Z,20.47
2022-07-27T20:33:15.600Z,20.47
2022-07-27T20:35:45.176Z,20.50
2022-07-27T20:38:14.565Z,20.48
2022-07-27T20:40:49.458Z,20.42
2022-07-27T20:43:18.887Z,20.39
2022-07-27T20:45:48.438Z,20.34
2022-07-27T20:48:17.844Z,20.33
2022-07-27T20:50:47.264Z,20.24
2022-07-27T20:53:16.639Z,20.17
2022-07-27T20:55:46.526Z,20.13
2022-07-27T20:58:18.519Z,20.14
2022-07-27T21:00:48.045Z,20.16
2022-07-27T21:03:17.581Z,20.15
2022-07-27T21:05:47.050Z,20.17
2022-07-27T21:08:16.485Z,20.20
2022-07-27T21:10:45.965Z,20.21
2022-07-27T21:13:18.037Z,20.24
2022-07-27T21:15:47.421Z,20.21
2022-07-27T21:18:16.847Z,20.20
2022-07-27T21:20:46.275Z,20.13
2022-07-27T21:23:28.558Z,20.01
2022-07-27T21:25:58.367Z,20.02
2022-07-27T21:28:30.767Z,19.88
2022-07-27T21:31:01.813Z,19.75
2022-07-27T21:33:39.430Z,19.74
2022-07-27T21:36:09.720Z,19.68
2022-07-27T21:38:39.913Z,19.66
2022-07-27T21:41:10.679Z,19.71
2022-07-27T21:43:44.637Z,19.72
2022-07-27T21:46:14.432Z,19.73
2022-07-27T21:48:44.828Z,19.73
2022-07-27T21:51:15.946Z,19.71
2022-07-27T21:53:45.712Z,19.65
2022-07-27T21:56:15.451Z,19.64
2022-07-27T21:58:48.962Z,19.59
2022-07-27T22:01:19.446Z,19.52
2022-07-27T22:03:49.371Z,19.44
2022-07-27T22:06:18.828Z,19.43
2022-07-27T22:08:48.967Z,19.28
2022-07-27T22:11:18.501Z,19.24
2022-07-27T22:13:50.826Z,19.08
2022-07-27T22:16:20.886Z,19.13
2022-07-27T22:18:50.366Z,19.23
2022-07-27T22:21:19.739Z,19.33
2022-07-27T22:23:51.061Z,19.15
2022-07-27T22:26:20.514Z,19.04
2022-07-27T22:28:52.487Z,18.93
2022-07-27T22:31:23.440Z,18.89
2022-07-27T22:33:52.946Z,18.89
2022-07-27T22:36:22.334Z,18.87
2022-07-27T22:38:51.675Z,18.80
2022-07-27T22:41:21.042Z,18.81
2022-07-27T22:43:53.431Z,18.83
2022-07-27T22:46:25.763Z,18.76
2022-07-27T22:48:55.414Z,18.72
2022-07-27T22:51:24.896Z,18.60
2022-07-27T22:53:54.515Z,18.51
2022-07-27T22:56:23.883Z,18.43
2022-07-27T22:58:55.869Z,18.53
2022-07-27T23:01:41.515Z,18.57
2022-07-27T23:04:15.169Z,18.36
2022-07-27T23:06:45.183Z,18.31
2022-07-27T23:09:14.577Z,18.18
2022-07-27T23:11:44.177Z,18.06
2022-07-27T23:14:16.336Z,18.07
2022-07-27T23:16:46.302Z,18.11
2022-07-27T23:19:15.703Z,18.17
2022-07-27T23:21:45.053Z,18.18
2022-07-27T23:24:16.364Z,18.17
2022-07-27T23:26:58.347Z,18.16
2022-07-27T23:29:30.289Z,18.12
2022-07-27T23:31:59.727Z,18.20
2022-07-27T23:34:29.229Z,18.12
2022-07-27T23:36:58.671Z,18.03
2022-07-27T23:39:28.880Z,17.92
2022-07-27T23:41:58.276Z,17.85
2022-07-27T23:44:30.254Z,17.89
2022-07-27T23:46:59.736Z,17.85
2022-07-27T23:49:29.180Z,17.71
2022-07-27T23:51:59.491Z,17.70
2022-07-27T23:54:29.030Z,17.67
2022-07-27T23:56:58.488Z,17.76
2022-07-27T23:59:30.402Z,17.77
